sensor_id;sensor_type;location;lat;lon;timestamp;temperature;humidity
837;DHT22;400;53.550;9.932;2024-02-14T00:02:27;8.80;1.00
837;DHT22;400;53.550;9.932;2024-02-14T00:04:54;8.80;1.00
837;DHT22;400;53.550;9.932;2024-02-14T00:07:21;8.80;1.00
837;DHT22;400;53.550;9.932;2024-02-14T00:09:48;8.80;1.00
837;DHT22;400;53.550;9.932;2024-02-14T00:12:15;8.70;1.00
837;DHT22;400;53.550;9.932;2024-02-14T00:14:42;8.70;1.00
837;DHT22;400;53.550;9.932;2024-02-14T00:17:09;8.70;1.00
837;DHT22;400;53.550;9.932;2024-02-14T00:19:39;8.70;1.00
837;DHT22;400;53.550;9.932;2024-02-14T00:22:06;8.70;1.00
837;DHT22;400;53.550;9.932;2024-02-14T00:24:33;8.70;1.00
837;DHT22;400;53.550;9.932;2024-02-14T00:27:01;8.70;1.00
837;DHT22;400;53.550;9.932;2024-02-14T00:29:28;8.70;1.00
837;DHT22;400;53.550;9.932;2024-02-14T00:31:55;8.70;1.00
837;DHT22;400;53.550;9.932;2024-02-14T00:34:22;8.60;1.00
837;DHT22;400;53.550;9.932;2024-02-14T00:36:50;8.60;1.00
837;DHT22;400;53.550;9.932;2024-02-14T00:39:17;8.60;1.00
837;DHT22;400;53.550;9.932;2024-02-14T00:41:46;8.60;1.00
837;DHT22;400;53.550;9.932;2024-02-14T00:44:13;8.60;1.00
837;DHT22;400;53.550;9.932;2024-02-14T00:46:42;8.50;1.00
837;DHT22;400;53.550;9.932;2024-02-14T00:49:09;8.50;1.00
837;DHT22;400;53.550;9.932;2024-02-14T00:51:36;8.60;1.00
837;DHT22;400;53.550;9.932;2024-02-14T00:54:05;8.60;1.00
837;DHT22;400;53.550;9.932;2024-02-14T00:56:32;8.60;1.00
837;DHT22;400;53.550;9.932;2024-02-14T00:58:59;8.50;1.00
837;DHT22;400;53.550;9.932;2024-02-14T01:01:26;8.50;1.00
837;DHT22;400;53.550;9.932;2024-02-14T01:03:53;8.50;1.00
837;DHT22;400;53.550;9.932;2024-02-14T01:06:20;8.60;1.00
837;DHT22;400;53.550;9.932;2024-02-14T01:08:47;8.60;1.00
837;DHT22;400;53.550;9.932;2024-02-14T01:11:15;8.60;1.00
837;DHT22;400;53.550;9.932;2024-02-14T01:13:43;8.60;1.00
837;DHT22;400;53.550;9.932;2024-02-14T01:16:09;8.60;1.00
837;DHT22;400;53.550;9.932;2024-02-14T01:18:36;8.60;1.00
837;DHT22;400;53.550;9.932;2024-02-14T01:21:04;8.60;1.00
837;DHT22;400;53.550;9.932;2024-02-14T01:23:31;8.60;1.00
837;DHT22;400;53.550;9.932;2024-02-14T01:25:58;8.60;1.00
837;DHT22;400;53.550;9.932;2024-02-14T01:28:26;8.60;1.00
837;DHT22;400;53.550;9.932;2024-02-14T01:30:53;8.60;1.00
837;DHT22;400;53.550;9.932;2024-02-14T01:33:22;8.60;1.00
837;DHT22;400;53.550;9.932;2024-02-14T01:35:49;8.60;1.00
837;DHT22;400;53.550;9.932;2024-02-14T01:38:16;8.60;1.00
837;DHT22;400;53.550;9.932;2024-02-14T01:40:43;8.60;1.00
837;DHT22;400;53.550;9.932;2024-02-14T01:43:11;8.60;1.00
837;DHT22;400;53.550;9.932;2024-02-14T01:45:41;8.60;1.00
837;DHT22;400;53.550;9.932;2024-02-14T01:48:08;8.60;1.00
837;DHT22;400;53.550;9.932;2024-02-14T01:50:37;8.60;1.00
837;DHT22;400;53.550;9.932;2024-02-14T01:53:06;8.60;1.00
837;DHT22;400;53.550;9.932;2024-02-14T01:55:34;8.60;1.00
837;DHT22;400;53.550;9.932;2024-02-14T01:58:01;8.60;1.00
837;DHT22;400;53.550;9.932;2024-02-14T02:00:29;8.60;1.00
837;DHT22;400;53.550;9.932;2024-02-14T02:02:58;8.60;1.00
837;DHT22;400;53.550;9.932;2024-02-14T02:05:25;8.60;1.00
837;DHT22;400;53.550;9.932;2024-02-14T02:07:52;8.60;1.00
837;DHT22;400;53.550;9.932;2024-02-14T02:10:19;8.60;1.00
837;DHT22;400;53.550;9.932;2024-02-14T02:12:47;8.60;1.00
837;DHT22;400;53.550;9.932;2024-02-14T02:15:17;8.60;1.00
837;DHT22;400;53.550;9.932;2024-02-14T02:17:44;8.60;1.00
837;DHT22;400;53.550;9.932;2024-02-14T02:20:19;8.60;1.00
837;DHT22;400;53.550;9.932;2024-02-14T02:22:48;8.60;1.00
837;DHT22;400;53.550;9.932;2024-02-14T02:25:15;8.60;1.00
837;DHT22;400;53.550;9.932;2024-02-14T02:27:45;8.50;1.00
837;DHT22;400;53.550;9.932;2024-02-14T02:30:12;8.50;1.00
837;DHT22;400;53.550;9.932;2024-02-14T02:32:39;8.50;1.00
837;DHT22;400;53.550;9.932;2024-02-14T02:35:07;8.50;1.00
837;DHT22;400;53.550;9.932;2024-02-14T02:37:35;8.50;1.00
837;DHT22;400;53.550;9.932;2024-02-14T02:40:04;8.50;1.00
837;DHT22;400;53.550;9.932;2024-02-14T02:42:31;8.50;1.00
837;DHT22;400;53.550;9.932;2024-02-14T02:44:58;8.50;1.00
837;DHT22;400;53.550;9.932;2024-02-14T02:47:24;8.50;1.00
837;DHT22;400;53.550;9.932;2024-02-14T02:49:51;8.40;1.00
837;DHT22;400;53.550;9.932;2024-02-14T02:52:19;8.40;1.00
837;DHT22;400;53.550;9.932;2024-02-14T02:54:47;8.50;1.00
837;DHT22;400;53.550;9.932;2024-02-14T02:57:15;8.40;1.00
837;DHT22;400;53.550;9.932;2024-02-14T02:59:42;8.40;1.00
837;DHT22;400;53.550;9.932;2024-02-14T03:02:10;8.40;1.00
837;DHT22;400;53.550;9.932;2024-02-14T03:04:38;8.40;1.00
837;DHT22;400;53.550;9.932;2024-02-14T03:07:05;8.40;1.00
837;DHT22;400;53.550;9.932;2024-02-14T03:09:34;8.40;1.00
837;DHT22;400;53.550;9.932;2024-02-14T03:12:01;8.40;1.00
837;DHT22;400;53.550;9.932;2024-02-14T03:14:30;8.40;1.00
837;DHT22;400;53.550;9.932;2024-02-14T03:16:58;8.30;1.00
837;DHT22;400;53.550;9.932;2024-02-14T03:19:25;8.30;1.00
837;DHT22;400;53.550;9.932;2024-02-14T03:21:52;8.30;1.00
837;DHT22;400;53.550;9.932;2024-02-14T03:24:19;8.30;1.00
837;DHT22;400;53.550;9.932;2024-02-14T03:26:46;8.30;1.00
837;DHT22;400;53.550;9.932;2024-02-14T03:29:13;8.30;1.00
837;DHT22;400;53.550;9.932;2024-02-14T03:31:43;8.20;1.00
837;DHT22;400;53.550;9.932;2024-02-14T03:34:10;8.20;1.00
837;DHT22;400;53.550;9.932;2024-02-14T03:36:37;8.20;1.00
837;DHT22;400;53.550;9.932;2024-02-14T03:39:05;8.20;1.00
837;DHT22;400;53.550;9.932;2024-02-14T03:41:32;8.20;1.00
837;DHT22;400;53.550;9.932;2024-02-14T03:43:59;8.20;1.00
837;DHT22;400;53.550;9.932;2024-02-14T03:46:27;8.20;1.00
837;DHT22;400;53.550;9.932;2024-02-14T03:48:55;8.20;1.00
837;DHT22;400;53.550;9.932;2024-02-14T03:51:23;8.10;1.00
837;DHT22;400;53.550;9.932;2024-02-14T03:53:50;8.10;1.00
837;DHT22;400;53.550;9.932;2024-02-14T03:56:17;8.10;1.00
837;DHT22;400;53.550;9.932;2024-02-14T03:58:43;8.10;1.00
837;DHT22;400;53.550;9.932;2024-02-14T04:01:12;8.10;1.00
837;DHT22;400;53.550;9.932;2024-02-14T04:03:40;8.10;1.00
837;DHT22;400;53.550;9.932;2024-02-14T04:06:08;8.10;1.00
837;DHT22;400;53.550;9.932;2024-02-14T04:08:35;8.00;1.00
837;DHT22;400;53.550;9.932;2024-02-14T04:11:02;8.00;1.00
837;DHT22;400;53.550;9.932;2024-02-14T04:13:29;8.00;1.00
837;DHT22;400;53.550;9.932;2024-02-14T04:15:56;8.00;1.00
837;DHT22;400;53.550;9.932;2024-02-14T04:18:23;7.90;1.00
837;DHT22;400;53.550;9.932;2024-02-14T04:20:50;7.90;1.00
837;DHT22;400;53.550;9.932;2024-02-14T04:23:18;7.90;1.00
837;DHT22;400;53.550;9.932;2024-02-14T04:25:45;7.90;1.00
837;DHT22;400;53.550;9.932;2024-02-14T04:28:12;7.90;1.00
837;DHT22;400;53.550;9.932;2024-02-14T04:30:39;7.90;1.00
837;DHT22;400;53.550;9.932;2024-02-14T04:33:07;7.90;1.00
837;DHT22;400;53.550;9.932;2024-02-14T04:35:35;7.90;1.00
837;DHT22;400;53.550;9.932;2024-02-14T04:38:03;7.90;1.00
837;DHT22;400;53.550;9.932;2024-02-14T04:40:33;7.90;1.00
837;DHT22;400;53.550;9.932;2024-02-14T04:43:00;7.90;1.00
837;DHT22;400;53.550;9.932;2024-02-14T04:45:27;7.90;1.00
837;DHT22;400;53.550;9.932;2024-02-14T04:47:54;7.90;1.00
837;DHT22;400;53.550;9.932;2024-02-14T04:50:21;7.90;1.00
837;DHT22;400;53.550;9.932;2024-02-14T04:52:48;7.90;1.00
837;DHT22;400;53.550;9.932;2024-02-14T04:55:15;7.90;1.00
837;DHT22;400;53.550;9.932;2024-02-14T04:57:50;7.80;1.00
837;DHT22;400;53.550;9.932;2024-02-14T05:00:17;7.90;1.00
837;DHT22;400;53.550;9.932;2024-02-14T05:02:44;7.90;1.00
837;DHT22;400;53.550;9.932;2024-02-14T05:05:11;7.80;1.00
837;DHT22;400;53.550;9.932;2024-02-14T05:07:38;7.90;1.00
837;DHT22;400;53.550;9.932;2024-02-14T05:10:06;7.90;1.00
837;DHT22;400;53.550;9.932;2024-02-14T05:12:33;7.90;1.00
837;DHT22;400;53.550;9.932;2024-02-14T05:15:02;7.90;1.00
837;DHT22;400;53.550;9.932;2024-02-14T05:17:29;7.90;1.00
837;DHT22;400;53.550;9.932;2024-02-14T05:19:56;7.90;1.00
837;DHT22;400;53.550;9.932;2024-02-14T05:22:24;7.90;1.00
837;DHT22;400;53.550;9.932;2024-02-14T05:24:51;7.90;1.00
837;DHT22;400;53.550;9.932;2024-02-14T05:27:19;8.00;1.00
837;DHT22;400;53.550;9.932;2024-02-14T05:29:48;8.00;1.00
837;DHT22;400;53.550;9.932;2024-02-14T05:32:18;8.00;1.00
837;DHT22;400;53.550;9.932;2024-02-14T05:34:46;8.00;1.00
837;DHT22;400;53.550;9.932;2024-02-14T05:37:13;8.00;1.00
837;DHT22;400;53.550;9.932;2024-02-14T05:39:40;8.00;1.00
837;DHT22;400;53.550;9.932;2024-02-14T05:42:07;8.00;1.00
837;DHT22;400;53.550;9.932;2024-02-14T05:44:34;8.10;1.00
837;DHT22;400;53.550;9.932;2024-02-14T05:47:01;8.10;1.00
837;DHT22;400;53.550;9.932;2024-02-14T05:49:29;8.10;1.00
837;DHT22;400;53.550;9.932;2024-02-14T05:51:56;8.10;1.00
837;DHT22;400;53.550;9.932;2024-02-14T05:54:23;8.10;1.00
837;DHT22;400;53.550;9.932;2024-02-14T05:56:50;8.10;1.00
837;DHT22;400;53.550;9.932;2024-02-14T05:59:17;8.10;1.00
837;DHT22;400;53.550;9.932;2024-02-14T06:01:44;8.10;1.00
837;DHT22;400;53.550;9.932;2024-02-14T06:04:12;8.20;1.00
837;DHT22;400;53.550;9.932;2024-02-14T06:06:40;8.10;1.00
837;DHT22;400;53.550;9.932;2024-02-14T06:09:07;8.20;1.00
837;DHT22;400;53.550;9.932;2024-02-14T06:11:38;8.20;1.00
837;DHT22;400;53.550;9.932;2024-02-14T06:14:05;8.20;1.00
837;DHT22;400;53.550;9.932;2024-02-14T06:16:32;8.20;1.00
837;DHT22;400;53.550;9.932;2024-02-14T06:19:01;8.20;1.00
837;DHT22;400;53.550;9.932;2024-02-14T06:21:32;8.20;1.00
837;DHT22;400;53.550;9.932;2024-02-14T06:24:11;8.20;1.00
837;DHT22;400;53.550;9.932;2024-02-14T06:26:42;8.20;1.00
837;DHT22;400;53.550;9.932;2024-02-14T06:29:09;8.30;1.00
837;DHT22;400;53.550;9.932;2024-02-14T06:31:38;8.20;1.00
837;DHT22;400;53.550;9.932;2024-02-14T06:34:05;8.20;1.00
837;DHT22;400;53.550;9.932;2024-02-14T06:36:33;8.20;1.00
837;DHT22;400;53.550;9.932;2024-02-14T06:39:00;8.30;1.00
837;DHT22;400;53.550;9.932;2024-02-14T06:41:32;8.30;1.00
837;DHT22;400;53.550;9.932;2024-02-14T06:44:06;8.30;1.00
837;DHT22;400;53.550;9.932;2024-02-14T06:46:36;8.30;1.00
837;DHT22;400;53.550;9.932;2024-02-14T06:49:04;8.30;1.00
837;DHT22;400;53.550;9.932;2024-02-14T06:51:34;8.20;1.00
837;DHT22;400;53.550;9.932;2024-02-14T06:54:01;8.30;1.00
837;DHT22;400;53.550;9.932;2024-02-14T06:56:33;8.20;1.00
837;DHT22;400;53.550;9.932;2024-02-14T06:59:01;8.30;1.00
837;DHT22;400;53.550;9.932;2024-02-14T07:01:29;8.30;1.00
837;DHT22;400;53.550;9.932;2024-02-14T07:04:04;8.30;1.00
837;DHT22;400;53.550;9.932;2024-02-14T07:06:39;8.30;1.00
837;DHT22;400;53.550;9.932;2024-02-14T07:09:08;8.30;1.00
837;DHT22;400;53.550;9.932;2024-02-14T07:11:42;8.30;1.00
837;DHT22;400;53.550;9.932;2024-02-14T07:14:16;8.30;1.00
837;DHT22;400;53.550;9.932;2024-02-14T07:16:43;8.30;1.00
837;DHT22;400;53.550;9.932;2024-02-14T07:19:12;8.40;1.00
837;DHT22;400;53.550;9.932;2024-02-14T07:21:40;8.40;1.00
837;DHT22;400;53.550;9.932;2024-02-14T07:24:07;8.40;1.00
837;DHT22;400;53.550;9.932;2024-02-14T07:26:36;8.40;1.00
837;DHT22;400;53.550;9.932;2024-02-14T07:29:16;8.40;1.00
837;DHT22;400;53.550;9.932;2024-02-14T07:31:54;8.40;1.00
837;DHT22;400;53.550;9.932;2024-02-14T07:34:24;8.40;1.00
837;DHT22;400;53.550;9.932;2024-02-14T07:36:51;8.40;1.00
837;DHT22;400;53.550;9.932;2024-02-14T07:39:18;8.40;1.00
837;DHT22;400;53.550;9.932;2024-02-14T07:41:45;8.50;1.00
837;DHT22;400;53.550;9.932;2024-02-14T07:44:13;8.50;1.00
837;DHT22;400;53.550;9.932;2024-02-14T07:46:40;8.40;1.00
837;DHT22;400;53.550;9.932;2024-02-14T07:49:07;8.40;1.00
837;DHT22;400;53.550;9.932;2024-02-14T07:51:35;8.50;1.00
837;DHT22;400;53.550;9.932;2024-02-14T07:54:03;8.50;1.00
837;DHT22;400;53.550;9.932;2024-02-14T07:56:32;8.50;1.00
837;DHT22;400;53.550;9.932;2024-02-14T07:58:59;8.50;1.00
837;DHT22;400;53.550;9.932;2024-02-14T08:01:29;8.50;1.00
837;DHT22;400;53.550;9.932;2024-02-14T08:03:57;8.50;1.00
837;DHT22;400;53.550;9.932;2024-02-14T08:06:25;8.60;1.00
837;DHT22;400;53.550;9.932;2024-02-14T08:08:55;8.60;1.00
837;DHT22;400;53.550;9.932;2024-02-14T08:11:30;8.60;1.00
837;DHT22;400;53.550;9.932;2024-02-14T08:14:02;8.60;1.00
837;DHT22;400;53.550;9.932;2024-02-14T08:16:33;8.60;1.00
837;DHT22;400;53.550;9.932;2024-02-14T08:19:01;8.60;1.00
837;DHT22;400;53.550;9.932;2024-02-14T08:21:29;8.70;1.00
837;DHT22;400;53.550;9.932;2024-02-14T08:23:56;8.70;1.00
837;DHT22;400;53.550;9.932;2024-02-14T08:26:24;8.70;1.00
837;DHT22;400;53.550;9.932;2024-02-14T08:28:51;8.70;1.00
837;DHT22;400;53.550;9.932;2024-02-14T08:31:20;8.70;1.00
837;DHT22;400;53.550;9.932;2024-02-14T08:33:50;8.70;1.00
837;DHT22;400;53.550;9.932;2024-02-14T08:36:17;8.70;1.00
837;DHT22;400;53.550;9.932;2024-02-14T08:38:46;8.70;3.00
837;DHT22;400;53.550;9.932;2024-02-14T08:41:13;8.80;2.80
837;DHT22;400;53.550;9.932;2024-02-14T08:43:41;8.80;8.90
837;DHT22;400;53.550;9.932;2024-02-14T08:46:12;8.80;7.40
837;DHT22;400;53.550;9.932;2024-02-14T08:48:45;8.80;6.20
837;DHT22;400;53.550;9.932;2024-02-14T08:51:19;8.90;7.30
837;DHT22;400;53.550;9.932;2024-02-14T08:53:46;8.90;5.10
837;DHT22;400;53.550;9.932;2024-02-14T08:56:13;8.90;5.30
837;DHT22;400;53.550;9.932;2024-02-14T08:58:40;9.00;3.30
837;DHT22;400;53.550;9.932;2024-02-14T09:01:07;9.00;2.00
837;DHT22;400;53.550;9.932;2024-02-14T09:03:34;9.00;11.30
837;DHT22;400;53.550;9.932;2024-02-14T09:06:01;9.00;5.00
837;DHT22;400;53.550;9.932;2024-02-14T09:08:30;9.00;8.10
837;DHT22;400;53.550;9.932;2024-02-14T09:10:57;9.10;14.10
837;DHT22;400;53.550;9.932;2024-02-14T09:13:26;9.10;15.60
837;DHT22;400;53.550;9.932;2024-02-14T09:15:54;9.10;26.20
837;DHT22;400;53.550;9.932;2024-02-14T09:18:25;9.10;36.90
837;DHT22;400;53.550;9.932;2024-02-14T09:20:51;9.20;54.20
837;DHT22;400;53.550;9.932;2024-02-14T09:23:21;9.20;47.50
837;DHT22;400;53.550;9.932;2024-02-14T09:25:56;9.20;49.50
837;DHT22;400;53.550;9.932;2024-02-14T09:28:28;9.20;65.10
837;DHT22;400;53.550;9.932;2024-02-14T09:31:09;9.30;90.70
837;DHT22;400;53.550;9.932;2024-02-14T09:33:38;9.30;99.90
837;DHT22;400;53.550;9.932;2024-02-14T09:36:06;9.30;99.90
837;DHT22;400;53.550;9.932;2024-02-14T09:38:33;9.30;99.90
837;DHT22;400;53.550;9.932;2024-02-14T09:41:09;9.40;99.90
837;DHT22;400;53.550;9.932;2024-02-14T09:43:44;9.40;99.90
837;DHT22;400;53.550;9.932;2024-02-14T09:46:13;9.40;99.90
837;DHT22;400;53.550;9.932;2024-02-14T09:48:41;9.50;99.90
837;DHT22;400;53.550;9.932;2024-02-14T09:51:10;9.50;99.90
837;DHT22;400;53.550;9.932;2024-02-14T09:53:43;9.50;99.90
837;DHT22;400;53.550;9.932;2024-02-14T09:56:11;9.50;99.90
837;DHT22;400;53.550;9.932;2024-02-14T09:58:43;9.50;99.90
837;DHT22;400;53.550;9.932;2024-02-14T10:01:19;9.60;99.90
837;DHT22;400;53.550;9.932;2024-02-14T10:03:51;9.60;99.90
837;DHT22;400;53.550;9.932;2024-02-14T10:06:18;9.70;99.90
837;DHT22;400;53.550;9.932;2024-02-14T10:08:46;9.70;99.90
837;DHT22;400;53.550;9.932;2024-02-14T10:11:22;9.70;99.90
837;DHT22;400;53.550;9.932;2024-02-14T10:13:49;9.70;99.90
837;DHT22;400;53.550;9.932;2024-02-14T10:16:19;9.80;99.90
837;DHT22;400;53.550;9.932;2024-02-14T10:18:45;9.80;99.90
837;DHT22;400;53.550;9.932;2024-02-14T10:21:15;9.80;99.90
837;DHT22;400;53.550;9.932;2024-02-14T10:23:45;9.90;99.90
837;DHT22;400;53.550;9.932;2024-02-14T10:26:13;9.90;99.90
837;DHT22;400;53.550;9.932;2024-02-14T10:28:42;9.90;99.90
837;DHT22;400;53.550;9.932;2024-02-14T10:31:10;9.90;99.90
837;DHT22;400;53.550;9.932;2024-02-14T10:33:44;10.00;99.90
837;DHT22;400;53.550;9.932;2024-02-14T10:36:18;10.00;99.90
837;DHT22;400;53.550;9.932;2024-02-14T10:38:50;10.00;99.90
837;DHT22;400;53.550;9.932;2024-02-14T10:41:20;10.00;99.90
837;DHT22;400;53.550;9.932;2024-02-14T10:43:58;10.10;99.90
837;DHT22;400;53.550;9.932;2024-02-14T10:46:29;10.10;99.90
837;DHT22;400;53.550;9.932;2024-02-14T10:49:07;10.10;99.90
837;DHT22;400;53.550;9.932;2024-02-14T10:51:39;10.20;99.90
837;DHT22;400;53.550;9.932;2024-02-14T10:54:11;10.20;99.90
837;DHT22;400;53.550;9.932;2024-02-14T10:56:40;10.20;99.90
837;DHT22;400;53.550;9.932;2024-02-14T10:59:17;10.30;99.90
837;DHT22;400;53.550;9.932;2024-02-14T11:01:50;10.30;99.90
837;DHT22;400;53.550;9.932;2024-02-14T11:04:20;10.30;99.90
837;DHT22;400;53.550;9.932;2024-02-14T11:06:51;10.30;99.90
837;DHT22;400;53.550;9.932;2024-02-14T11:09:20;10.30;99.90
837;DHT22;400;53.550;9.932;2024-02-14T11:11:47;10.40;99.90
837;DHT22;400;53.550;9.932;2024-02-14T11:14:18;10.40;99.90
837;DHT22;400;53.550;9.932;2024-02-14T11:16:45;10.40;99.90
837;DHT22;400;53.550;9.932;2024-02-14T11:19:13;10.40;99.90
837;DHT22;400;53.550;9.932;2024-02-14T11:21:44;10.40;99.90
837;DHT22;400;53.550;9.932;2024-02-14T11:24:13;10.50;99.90
837;DHT22;400;53.550;9.932;2024-02-14T11:26:50;10.50;99.90
837;DHT22;400;53.550;9.932;2024-02-14T11:29:33;10.50;99.90
837;DHT22;400;53.550;9.932;2024-02-14T11:32:02;10.50;99.90
837;DHT22;400;53.550;9.932;2024-02-14T11:34:32;10.60;99.90
837;DHT22;400;53.550;9.932;2024-02-14T11:36:59;10.60;99.90
837;DHT22;400;53.550;9.932;2024-02-14T11:39:26;10.60;99.90
837;DHT22;400;53.550;9.932;2024-02-14T11:41:56;10.70;99.90
837;DHT22;400;53.550;9.932;2024-02-14T11:44:25;10.70;99.90
837;DHT22;400;53.550;9.932;2024-02-14T11:46:54;10.70;99.90
837;DHT22;400;53.550;9.932;2024-02-14T11:49:21;10.70;99.90
837;DHT22;400;53.550;9.932;2024-02-14T11:51:48;10.70;99.90
837;DHT22;400;53.550;9.932;2024-02-14T11:54:15;10.70;99.90
837;DHT22;400;53.550;9.932;2024-02-14T11:56:43;10.80;99.90
837;DHT22;400;53.550;9.932;2024-02-14T11:59:10;10.80;99.90
837;DHT22;400;53.550;9.932;2024-02-14T12:01:38;10.80;99.90
837;DHT22;400;53.550;9.932;2024-02-14T12:04:09;10.80;99.90
837;DHT22;400;53.550;9.932;2024-02-14T12:06:39;10.80;99.90
837;DHT22;400;53.550;9.932;2024-02-14T12:09:11;10.90;99.90
837;DHT22;400;53.550;9.932;2024-02-14T12:11:40;10.90;99.90
837;DHT22;400;53.550;9.932;2024-02-14T12:14:09;10.90;99.90
837;DHT22;400;53.550;9.932;2024-02-14T12:16:37;10.90;99.90
837;DHT22;400;53.550;9.932;2024-02-14T12:19:08;11.00;1.00
837;DHT22;400;53.550;9.932;2024-02-14T12:21:36;11.00;1.00
837;DHT22;400;53.550;9.932;2024-02-14T12:24:10;11.00;99.90
837;DHT22;400;53.550;9.932;2024-02-14T12:26:45;11.00;99.90
837;DHT22;400;53.550;9.932;2024-02-14T12:29:23;11.00;99.90
837;DHT22;400;53.550;9.932;2024-02-14T12:32:02;11.10;99.90
837;DHT22;400;53.550;9.932;2024-02-14T12:34:37;11.10;1.00
837;DHT22;400;53.550;9.932;2024-02-14T12:37:04;11.10;99.90
837;DHT22;400;53.550;9.932;2024-02-14T12:39:34;11.20;99.90
837;DHT22;400;53.550;9.932;2024-02-14T12:42:06;11.20;1.00
837;DHT22;400;53.550;9.932;2024-02-14T12:44:34;11.20;1.00
837;DHT22;400;53.550;9.932;2024-02-14T12:47:02;11.20;1.00
837;DHT22;400;53.550;9.932;2024-02-14T12:49:36;11.30;1.00
837;DHT22;400;53.550;9.932;2024-02-14T12:52:03;11.20;1.00
837;DHT22;400;53.550;9.932;2024-02-14T12:54:33;11.20;1.00
837;DHT22;400;53.550;9.932;2024-02-14T12:57:06;11.20;1.00
837;DHT22;400;53.550;9.932;2024-02-14T12:59:35;11.20;1.00
837;DHT22;400;53.550;9.932;2024-02-14T13:02:04;11.20;1.00
837;DHT22;400;53.550;9.932;2024-02-14T13:04:33;11.20;1.00
837;DHT22;400;53.550;9.932;2024-02-14T13:07:07;11.30;1.00
837;DHT22;400;53.550;9.932;2024-02-14T13:09:39;11.30;1.00
837;DHT22;400;53.550;9.932;2024-02-14T13:12:09;11.30;1.00
837;DHT22;400;53.550;9.932;2024-02-14T13:14:36;11.30;1.00
837;DHT22;400;53.550;9.932;2024-02-14T13:17:06;11.30;1.00
837;DHT22;400;53.550;9.932;2024-02-14T13:19:39;11.30;1.00
837;DHT22;400;53.550;9.932;2024-02-14T13:22:19;11.30;1.00
837;DHT22;400;53.550;9.932;2024-02-14T13:24:47;11.30;1.00
837;DHT22;400;53.550;9.932;2024-02-14T13:27:16;11.30;1.00
837;DHT22;400;53.550;9.932;2024-02-14T13:29:45;11.40;1.00
837;DHT22;400;53.550;9.932;2024-02-14T13:32:18;11.40;1.00
837;DHT22;400;53.550;9.932;2024-02-14T13:34:50;11.40;1.00
837;DHT22;400;53.550;9.932;2024-02-14T13:37:30;11.40;1.00
837;DHT22;400;53.550;9.932;2024-02-14T13:40:02;11.40;1.00
837;DHT22;400;53.550;9.932;2024-02-14T13:42:35;11.40;1.00
837;DHT22;400;53.550;9.932;2024-02-14T13:45:04;11.40;1.00
837;DHT22;400;53.550;9.932;2024-02-14T13:47:38;11.50;1.00
837;DHT22;400;53.550;9.932;2024-02-14T13:50:09;11.50;1.00
837;DHT22;400;53.550;9.932;2024-02-14T13:52:37;11.50;1.00
837;DHT22;400;53.550;9.932;2024-02-14T13:55:13;11.50;1.00
837;DHT22;400;53.550;9.932;2024-02-14T13:57:43;11.50;1.00
837;DHT22;400;53.550;9.932;2024-02-14T14:00:15;11.50;1.00
837;DHT22;400;53.550;9.932;2024-02-14T14:02:48;11.50;1.00
837;DHT22;400;53.550;9.932;2024-02-14T14:05:17;11.50;1.00
837;DHT22;400;53.550;9.932;2024-02-14T14:07:55;11.50;1.00
837;DHT22;400;53.550;9.932;2024-02-14T14:10:22;11.50;1.00
837;DHT22;400;53.550;9.932;2024-02-14T14:12:52;11.60;1.00
837;DHT22;400;53.550;9.932;2024-02-14T14:15:21;11.60;1.00
837;DHT22;400;53.550;9.932;2024-02-14T14:17:48;11.60;1.00
837;DHT22;400;53.550;9.932;2024-02-14T14:20:19;11.60;1.00
837;DHT22;400;53.550;9.932;2024-02-14T14:22:48;11.60;1.00
837;DHT22;400;53.550;9.932;2024-02-14T14:25:16;11.60;1.00
837;DHT22;400;53.550;9.932;2024-02-14T14:27:44;11.60;1.00
837;DHT22;400;53.550;9.932;2024-02-14T14:30:14;11.50;1.00
837;DHT22;400;53.550;9.932;2024-02-14T14:32:48;11.60;1.00
837;DHT22;400;53.550;9.932;2024-02-14T14:35:17;11.60;1.00
837;DHT22;400;53.550;9.932;2024-02-14T14:37:46;11.60;1.00
837;DHT22;400;53.550;9.932;2024-02-14T14:40:18;11.60;1.00
837;DHT22;400;53.550;9.932;2024-02-14T14:42:46;11.70;1.00
837;DHT22;400;53.550;9.932;2024-02-14T14:45:14;11.60;1.00
837;DHT22;400;53.550;9.932;2024-02-14T14:47:47;11.60;1.00
837;DHT22;400;53.550;9.932;2024-02-14T14:50:15;11.70;1.00
837;DHT22;400;53.550;9.932;2024-02-14T14:52:43;11.60;1.00
837;DHT22;400;53.550;9.932;2024-02-14T14:55:12;11.70;1.00
837;DHT22;400;53.550;9.932;2024-02-14T14:57:42;11.70;1.00
837;DHT22;400;53.550;9.932;2024-02-14T15:00:13;11.70;1.00
837;DHT22;400;53.550;9.932;2024-02-14T15:02:43;11.70;1.00
837;DHT22;400;53.550;9.932;2024-02-14T15:05:13;11.70;1.00
837;DHT22;400;53.550;9.932;2024-02-14T15:07:43;11.70;1.00
837;DHT22;400;53.550;9.932;2024-02-14T15:10:13;11.70;1.00
837;DHT22;400;53.550;9.932;2024-02-14T15:12:46;11.70;1.00
837;DHT22;400;53.550;9.932;2024-02-14T15:15:18;11.70;1.00
837;DHT22;400;53.550;9.932;2024-02-14T15:17:47;11.70;1.00
837;DHT22;400;53.550;9.932;2024-02-14T15:20:14;11.70;1.00
837;DHT22;400;53.550;9.932;2024-02-14T15:22:41;11.70;1.00
837;DHT22;400;53.550;9.932;2024-02-14T15:25:10;11.70;1.00
837;DHT22;400;53.550;9.932;2024-02-14T15:27:44;11.70;1.00
837;DHT22;400;53.550;9.932;2024-02-14T15:30:21;11.70;1.00
837;DHT22;400;53.550;9.932;2024-02-14T15:33:11;11.70;1.00
837;DHT22;400;53.550;9.932;2024-02-14T15:35:50;11.70;1.00
837;DHT22;400;53.550;9.932;2024-02-14T15:38:22;11.70;1.00
837;DHT22;400;53.550;9.932;2024-02-14T15:40:54;11.70;1.00
837;DHT22;400;53.550;9.932;2024-02-14T15:43:42;11.80;1.00
837;DHT22;400;53.550;9.932;2024-02-14T15:46:13;11.70;1.00
837;DHT22;400;53.550;9.932;2024-02-14T15:48:46;11.80;99.90
837;DHT22;400;53.550;9.932;2024-02-14T15:51:17;11.80;1.00
837;DHT22;400;53.550;9.932;2024-02-14T15:53:46;11.70;1.00
837;DHT22;400;53.550;9.932;2024-02-14T15:56:13;11.80;1.00
837;DHT22;400;53.550;9.932;2024-02-14T15:58:42;11.80;99.90
837;DHT22;400;53.550;9.932;2024-02-14T16:01:10;11.70;99.90
837;DHT22;400;53.550;9.932;2024-02-14T16:03:39;11.80;99.90
837;DHT22;400;53.550;9.932;2024-02-14T16:06:06;11.80;99.90
837;DHT22;400;53.550;9.932;2024-02-14T16:08:40;11.70;99.90
837;DHT22;400;53.550;9.932;2024-02-14T16:11:08;11.80;99.90
837;DHT22;400;53.550;9.932;2024-02-14T16:13:37;11.80;99.90
837;DHT22;400;53.550;9.932;2024-02-14T16:16:09;11.80;99.90
837;DHT22;400;53.550;9.932;2024-02-14T16:18:38;11.80;99.90
837;DHT22;400;53.550;9.932;2024-02-14T16:21:05;11.80;99.90
837;DHT22;400;53.550;9.932;2024-02-14T16:23:35;11.80;99.90
837;DHT22;400;53.550;9.932;2024-02-14T16:26:03;11.80;99.90
837;DHT22;400;53.550;9.932;2024-02-14T16:28:49;11.80;99.90
837;DHT22;400;53.550;9.932;2024-02-14T16:31:20;11.90;99.90
837;DHT22;400;53.550;9.932;2024-02-14T16:33:48;11.80;99.90
837;DHT22;400;53.550;9.932;2024-02-14T16:36:14;11.80;99.90
837;DHT22;400;53.550;9.932;2024-02-14T16:38:44;11.80;99.90
837;DHT22;400;53.550;9.932;2024-02-14T16:41:11;11.80;99.90
837;DHT22;400;53.550;9.932;2024-02-14T16:43:38;11.90;99.90
837;DHT22;400;53.550;9.932;2024-02-14T16:46:06;11.90;99.90
837;DHT22;400;53.550;9.932;2024-02-14T16:48:36;11.80;1.00
837;DHT22;400;53.550;9.932;2024-02-14T16:51:03;11.80;99.90
837;DHT22;400;53.550;9.932;2024-02-14T16:53:30;11.80;99.90
837;DHT22;400;53.550;9.932;2024-02-14T16:56:01;11.90;99.90
837;DHT22;400;53.550;9.932;2024-02-14T16:58:31;11.90;99.90
837;DHT22;400;53.550;9.932;2024-02-14T17:00:58;11.90;99.90
837;DHT22;400;53.550;9.932;2024-02-14T17:03:25;11.90;99.90
837;DHT22;400;53.550;9.932;2024-02-14T17:05:54;11.80;99.90
837;DHT22;400;53.550;9.932;2024-02-14T17:08:23;11.90;99.90
837;DHT22;400;53.550;9.932;2024-02-14T17:10:50;11.80;99.90
837;DHT22;400;53.550;9.932;2024-02-14T17:13:20;11.90;99.90